LTBR/YEI METAR and TAF weather

Enter ICAO airport designator
Station Type Date Time Source
LTBR METAR 2019/02/20 07:50 UTC NOAA

LTBR 200750Z 07001KT 6000 NSC 06/02 Q1020 NOSIG


Station Type Date Time Source
LTBR Decoded METAR 2019/02/20 07:50 UTC NOAA

Bursa / Yenisehir, Mil-Civ, Turkey (LTBR) 40-15-19N 029-33-45E
Feb 20, 2019 - 02:50 AM EST / 2019.02.20 0750 UTC
Wind: from the ENE (070 degrees) at 1 MPH (1 KT):0
Visibility: 3 mile(s):0
Temperature: 42 F (6 C)
Dew Point: 35 F (2 C)
Relative Humidity: 75%
Pressure (altimeter): 30.12 in. Hg (1020 hPa)
ob: LTBR 200750Z 07001KT 6000 NSC 06/02 Q1020 NOSIG
cycle: 8

Station Type Date Time Source
LTBR TAF 2019/02/20 06:03 UTC NOAA

TAF LTBR 200440Z 2006/2106 VRB02KT 4000 BR NSC
BECMG 2006/2010 CAVOK PROB40 2011/2015 01012KT FEW040
BECMG 2021/2101 3500 BR PROB40 2102/2106 0500 FZFG VV002


Example: see airport list